createdAt,value
2023-02-11T00:04:10.214Z,2.38
2023-02-11T00:09:32.479Z,3.75
2023-02-11T00:14:54.186Z,3.75
2023-02-11T00:20:16.126Z,1.83
2023-02-11T00:25:45.670Z,1.10
2023-02-11T00:31:07.634Z,1.58
2023-02-11T00:36:30.258Z,3.28
2023-02-11T00:41:52.206Z,1.48
2023-02-11T00:47:14.062Z,2.15
2023-02-11T00:52:35.899Z,1.30
2023-02-11T00:57:59.010Z,2.10
2023-02-11T01:03:20.919Z,2.67
2023-02-11T01:08:42.632Z,2.17
2023-02-11T01:14:04.359Z,2.22
2023-02-11T01:19:26.103Z,1.50
2023-02-11T01:24:47.885Z,1.13
2023-02-11T01:30:12.227Z,1.45
2023-02-11T01:35:34.027Z,2.10
2023-02-11T01:41:02.014Z,0.80
2023-02-11T01:46:29.763Z,1.27
2023-02-11T01:51:55.221Z,1.77
2023-02-11T01:57:23.503Z,2.45
2023-02-11T02:02:51.092Z,1.83
2023-02-11T02:08:19.034Z,0.80
2023-02-11T02:13:40.819Z,1.17
2023-02-11T02:19:17.698Z,0.93
2023-02-11T02:25:16.936Z,2.15
2023-02-11T02:30:46.946Z,1.77
2023-02-11T02:36:23.768Z,0.95
2023-02-11T02:41:47.584Z,1.27
2023-02-11T02:47:09.272Z,1.30
2023-02-11T02:52:44.254Z,1.33
2023-02-11T02:58:22.699Z,1.33
2023-02-11T03:03:47.214Z,1.07
2023-02-11T03:09:27.777Z,1.25
2023-02-11T03:14:52.392Z,0.95
2023-02-11T03:20:17.623Z,0.68
2023-02-11T03:25:46.014Z,1.10
2023-02-11T03:31:44.652Z,0.55
2023-02-11T03:37:13.248Z,0.95
2023-02-11T03:42:41.007Z,0.77
2023-02-11T03:48:08.082Z,1.00
2023-02-11T03:53:29.782Z,2.08
2023-02-11T03:58:51.526Z,1.10
2023-02-11T04:04:13.293Z,0.80
2023-02-11T04:09:36.438Z,2.55
2023-02-11T04:14:58.357Z,1.52
2023-02-11T04:20:20.366Z,0.80
2023-02-11T04:25:43.033Z,1.80
2023-02-11T04:31:04.952Z,1.90
2023-02-11T04:36:27.028Z,1.10
2023-02-11T04:41:49.167Z,0.63
2023-02-11T04:47:12.861Z,1.55
2023-02-11T04:52:34.911Z,1.30
2023-02-11T04:57:56.709Z,0.70
2023-02-11T05:03:18.698Z,1.08
2023-02-11T05:08:40.691Z,1.17
2023-02-11T05:14:02.489Z,0.43
2023-02-11T05:19:24.177Z,0.30
2023-02-11T05:24:45.898Z,1.60
2023-02-11T05:30:09.035Z,1.15
2023-02-11T05:35:30.780Z,1.35
2023-02-11T05:40:52.478Z,0.80
2023-02-11T05:46:14.309Z,0.80
2023-02-11T05:51:36.160Z,0.38
2023-02-11T05:56:57.909Z,1.55
2023-02-11T06:02:19.779Z,0.40
2023-02-11T06:07:41.804Z,0.98
2023-02-11T06:13:04.281Z,1.13
2023-02-11T06:18:26.220Z,0.73
2023-02-11T06:23:48.144Z,1.48
2023-02-11T06:29:10.312Z,1.20
2023-02-11T06:34:32.034Z,0.60
2023-02-11T06:39:53.737Z,1.80
2023-02-11T06:45:15.630Z,0.80
2023-02-11T06:50:37.350Z,0.85
2023-02-11T06:56:06.378Z,1.42
2023-02-11T07:01:28.986Z,0.90
2023-02-11T07:06:50.737Z,0.95
2023-02-11T07:12:12.481Z,0.30
2023-02-11T07:17:35.905Z,0.98
2023-02-11T07:22:57.952Z,0.73
2023-02-11T07:28:19.767Z,1.20
2023-02-11T07:33:42.330Z,0.35
2023-02-11T07:39:04.305Z,0.50
2023-02-11T07:44:26.170Z,0.80
2023-02-11T07:49:47.879Z,0.98
2023-02-11T07:55:10.312Z,0.80
2023-02-11T08:00:32.068Z,1.00
2023-02-11T08:05:53.755Z,4.78
2023-02-11T08:11:22.031Z,7.72
2023-02-11T08:16:43.785Z,2.88
2023-02-11T08:22:05.685Z,11.65
2023-02-11T08:27:27.525Z,16.75
2023-02-11T08:32:49.248Z,12.75
2023-02-11T08:38:10.945Z,12.63
2023-02-11T08:43:33.545Z,12.40
2023-02-11T08:48:55.324Z,13.13
2023-02-11T08:54:17.558Z,15.07
2023-02-11T08:59:40.220Z,9.35
2023-02-11T09:05:01.928Z,16.90
2023-02-11T09:10:23.664Z,13.50
2023-02-11T09:15:46.982Z,11.40
2023-02-11T09:21:10.167Z,9.23
2023-02-11T09:26:33.972Z,11.40
2023-02-11T09:31:55.862Z,6.90
2023-02-11T09:37:17.632Z,13.25
2023-02-11T09:43:02.333Z,11.10
2023-02-11T09:48:25.976Z,10.35
2023-02-11T09:53:54.599Z,9.68
2023-02-11T09:59:17.791Z,8.65
2023-02-11T10:05:07.191Z,9.85
2023-02-11T10:10:50.446Z,9.63
2023-02-11T10:16:18.460Z,13.70
2023-02-11T10:22:04.720Z,10.70
2023-02-11T10:27:35.605Z,9.45
2023-02-11T10:33:06.747Z,15.05
2023-02-11T10:38:28.492Z,11.73
2023-02-11T10:43:51.052Z,20.40
2023-02-11T10:49:38.966Z,14.35
2023-02-11T10:55:17.361Z,11.50
2023-02-11T11:00:41.123Z,11.38
2023-02-11T11:06:05.765Z,11.90
2023-02-11T11:11:27.607Z,10.50
2023-02-11T11:16:56.430Z,11.70
2023-02-11T11:22:24.364Z,7.40
2023-02-11T11:27:50.763Z,5.47
2023-02-11T11:33:25.076Z,8.80
2023-02-11T11:39:00.733Z,7.13
2023-02-11T11:44:29.922Z,8.23
2023-02-11T11:50:39.720Z,9.98
2023-02-11T11:56:23.181Z,12.15
2023-02-11T12:01:59.253Z,8.93
2023-02-11T12:07:21.128Z,5.93
2023-02-11T12:13:17.214Z,8.50
2023-02-11T12:18:49.969Z,12.77
2023-02-11T12:24:39.125Z,8.57
2023-02-11T12:30:28.704Z,10.13
2023-02-11T12:35:59.438Z,11.10
2023-02-11T12:41:51.707Z,10.23
2023-02-11T12:47:39.275Z,10.25
2023-02-11T12:53:30.185Z,8.55
2023-02-11T12:58:56.241Z,14.35
2023-02-11T13:04:38.677Z,11.00
2023-02-11T13:10:09.430Z,11.27
2023-02-11T13:15:31.557Z,10.85
2023-02-11T13:21:09.513Z,6.32
2023-02-11T13:26:54.265Z,7.65
2023-02-11T13:32:16.430Z,6.70
2023-02-11T13:37:39.912Z,8.60
2023-02-11T13:43:04.673Z,6.65
2023-02-11T13:48:38.739Z,5.50
2023-02-11T13:54:01.212Z,6.85
2023-02-11T13:59:25.942Z,4.85
2023-02-11T14:05:24.823Z,5.20
2023-02-11T14:10:52.557Z,4.80
2023-02-11T14:16:22.601Z,6.10
2023-02-11T14:21:46.796Z,8.35
2023-02-11T14:27:21.592Z,11.15
2023-02-11T14:32:55.201Z,5.03
2023-02-11T14:38:39.797Z,7.70
2023-02-11T14:44:06.555Z,6.88
2023-02-11T14:49:35.913Z,8.13
2023-02-11T14:55:23.818Z,4.70
2023-02-11T15:00:56.295Z,8.20
2023-02-11T15:06:28.179Z,5.15
2023-02-11T15:11:52.479Z,8.15
2023-02-11T15:17:19.215Z,7.38
2023-02-11T15:22:40.981Z,5.32
2023-02-11T15:28:21.613Z,8.10
2023-02-11T15:33:43.918Z,11.75
2023-02-11T15:39:31.709Z,7.53
2023-02-11T15:45:11.962Z,9.07
2023-02-11T15:50:41.009Z,13.50
2023-02-11T15:56:19.626Z,14.85
2023-02-11T16:01:42.490Z,11.30
2023-02-11T16:07:05.330Z,12.75
2023-02-11T16:12:27.393Z,14.10
2023-02-11T16:17:49.244Z,18.88
2023-02-11T16:23:21.979Z,6.93
2023-02-11T16:28:43.762Z,11.32
2023-02-11T16:34:21.221Z,10.05
2023-02-11T16:39:43.111Z,15.13
2023-02-11T16:45:05.195Z,15.15
2023-02-11T16:50:26.875Z,11.30
2023-02-11T16:55:49.328Z,10.90
2023-02-11T17:01:13.923Z,7.38
2023-02-11T17:06:35.968Z,7.80
2023-02-11T17:11:57.885Z,7.80
2023-02-11T17:17:19.675Z,13.38
2023-02-11T17:22:41.787Z,15.95
2023-02-11T17:28:07.862Z,15.52
2023-02-11T17:33:29.641Z,7.90
2023-02-11T17:38:51.999Z,9.65
2023-02-11T17:44:15.614Z,8.75
2023-02-11T17:49:37.532Z,11.45
2023-02-11T17:54:59.246Z,10.25
2023-02-11T18:00:21.576Z,9.65
2023-02-11T18:05:43.881Z,9.43
2023-02-11T18:11:10.326Z,6.05
2023-02-11T18:16:34.519Z,11.35
2023-02-11T18:21:58.617Z,10.50
2023-02-11T18:27:22.900Z,17.02
2023-02-11T18:32:45.031Z,6.63
2023-02-11T18:38:06.944Z,11.63
2023-02-11T18:43:33.801Z,13.38
2023-02-11T18:48:56.412Z,7.28
2023-02-11T18:54:18.234Z,8.45
2023-02-11T18:59:39.908Z,6.38
2023-02-11T19:05:01.820Z,8.65
2023-02-11T19:10:23.942Z,12.52
2023-02-11T19:15:46.783Z,22.23
2023-02-11T19:21:10.383Z,25.65
2023-02-11T19:26:32.123Z,30.70
2023-02-11T19:31:54.431Z,10.10
2023-02-11T19:37:16.260Z,20.73
2023-02-11T19:42:38.918Z,24.50
2023-02-11T19:48:00.673Z,16.60
2023-02-11T19:53:23.220Z,14.15
2023-02-11T19:58:44.954Z,18.73
2023-02-11T20:04:07.088Z,19.42
2023-02-11T20:09:31.178Z,14.35
2023-02-11T20:14:52.924Z,17.48
2023-02-11T20:20:14.739Z,12.40
2023-02-11T20:25:40.419Z,13.20
2023-02-11T20:31:02.723Z,15.02
2023-02-11T20:36:27.646Z,9.98
2023-02-11T20:41:50.424Z,8.27
2023-02-11T20:47:12.501Z,15.32
2023-02-11T20:52:34.436Z,14.27
2023-02-11T20:57:56.216Z,14.52
2023-02-11T21:03:17.994Z,11.32
2023-02-11T21:08:39.737Z,12.85
2023-02-11T21:14:02.268Z,7.78
2023-02-11T21:19:24.064Z,8.57
2023-02-11T21:24:45.809Z,9.88
2023-02-11T21:30:08.111Z,14.77
2023-02-11T21:35:32.436Z,10.32
2023-02-11T21:40:54.551Z,14.77
2023-02-11T21:46:18.147Z,7.25
2023-02-11T21:51:39.899Z,10.57
2023-02-11T21:57:03.279Z,16.60
2023-02-11T22:02:25.224Z,10.68
2023-02-11T22:07:47.870Z,4.72
2023-02-11T22:13:09.613Z,10.38
2023-02-11T22:18:31.617Z,9.63
2023-02-11T22:23:54.870Z,12.05
2023-02-11T22:29:16.648Z,5.97
2023-02-11T22:34:38.925Z,8.95
2023-02-11T22:40:00.584Z,9.75
2023-02-11T22:45:22.238Z,9.60
2023-02-11T22:50:43.939Z,6.80
2023-02-11T22:56:08.069Z,4.10
2023-02-11T23:01:31.589Z,11.38
2023-02-11T23:06:53.370Z,11.10
2023-02-11T23:12:15.105Z,4.50
2023-02-11T23:17:36.818Z,3.28
2023-02-11T23:22:58.523Z,7.03
2023-02-11T23:28:20.344Z,3.55
2023-02-11T23:33:42.138Z,3.90
2023-02-11T23:39:04.768Z,4.35
2023-02-11T23:44:27.362Z,6.43
2023-02-11T23:49:49.044Z,2.78
2023-02-11T23:55:11.506Z,5.65
